Latest Weather Observations for Warragul (Nilma North)

IDV60801

Issued at 10:22 pm EDT Monday 19 November 2018 (issued every 10 minutes, with the page automatically refreshed every 10 minutes)

About weather observations | Map of weather stations | Latest weather observations for VIC | Other Formats
Station Details ID: 085313 Name: NILMA NORTH (WARRAGUL) Lat: -38.13 Lon: 145.99 Height: 134.11 m
Data from the previous 72 hours. | See also: Recent months for locations in Victoria
Date/Time
EDT
Temp
°C
App
Temp
°C
Dew
Point
°C
Rel
Hum
%
Delta-T
°C
Wind Press
QNH
hPa
Press
MSL
hPa
Rain since
9am
mm
Dir  Spd
km/h
Gust
km/h
Spd
kts
Gust
kts
19/10:00pm 18.1 14.7 10.5 61 4.1 E 19 28 10 15 1012.9 1012.8 0.0
19/09:30pm 18.5 15.0 10.1 58 4.5 E 19 24 10 13 1013.1 1013.0 0.0
19/09:00pm 19.3 15.6 9.5 53 5.2 E 19 26 10 14 1013.1 1013.0 0.0
19/08:30pm 20.3 16.6 9.5 50 5.8 E 19 26 10 14 1012.9 1012.8 0.0
19/08:00pm 21.1 17.9 10.0 49 6.0 E 17 26 9 14 1012.8 1012.6 0.0
19/07:30pm 22.1 18.5 9.9 46 6.7 E 19 28 10 15 1012.5 1012.3 0.0
19/07:00pm 23.3 19.7 10.0 43 7.3 E 19 28 10 15 1012.1 1011.9 0.0
19/06:30pm 24.9 21.1 9.2 37 8.6 E 19 37 10 20 1011.8 1011.6 0.0
19/06:00pm 26.2 23.4 10.0 36 9.0 ESE 15 26 8 14 1011.7 1011.5 0.0
19/05:30pm 27.6 25.2 9.9 33 9.9 E 13 20 7 11 1011.8 1011.6 0.0
19/05:00pm 29.2 27.3 6.6 24 12.1 NNW 6 11 3 6 1012.0 1011.8 0.0
19/04:30pm 29.1 27.0 5.9 23 12.3 NW 6 13 3 7 1012.2 1012.0 0.0
19/04:00pm 28.6 27.5 8.3 28 11.1 ENE 4 11 2 6 1012.4 1012.2 0.0
19/03:30pm 28.6 27.7 11.2 34 10.0 ENE 7 11 4 6 1012.7 1012.5 0.0
19/03:00pm 28.0 27.4 12.4 38 9.1 SSE 7 13 4 7 1013.1 1013.0 0.0
19/02:30pm 27.2 26.3 11.3 37 9.1 E 7 11 4 6 1013.7 1013.5 0.0
19/02:00pm 26.6 25.4 9.5 34 9.5 E 6 11 3 6 1014.0 1013.8 0.0
19/01:30pm 27.1 26.3 11.6 38 8.9 E 7 15 4 8 1014.5 1014.3 0.0
19/01:00pm 26.2 25.3 10.8 38 8.7 S 6 11 3 6 1014.8 1014.6 0.0
19/12:30pm 25.4 23.8 11.6 42 7.9 SE 11 17 6 9 1015.3 1015.1 0.0
19/12:00pm 24.4 23.5 12.7 48 6.8 SE 9 17 5 9 1015.9 1015.7 0.0
19/11:30am 23.6 22.8 12.9 51 6.2 ESE 9 15 5 8 1016.4 1016.2 0.0
19/11:00am 22.9 22.3 13.4 55 5.5 E 9 15 5 8 1016.8 1016.6 0.0
19/10:30am 22.0 21.0 13.4 58 5.0 E 11 17 6 9 1017.1 1016.9 0.0
19/10:00am 20.1 18.4 12.6 62 4.2 E 13 17 7 9 1017.6 1017.4 0.0
19/09:30am 18.9 17.3 12.9 68 3.4 E 13 20 7 11 1017.8 1017.6 0.0
19/09:00am 17.5 15.5 12.6 73 2.7 E 15 20 8 11 1017.9 1017.7 0.0
19/08:30am 15.8 13.7 12.4 80 1.9 E 15 24 8 13 1017.8 1017.6 0.0
19/08:00am 14.4 13.9 13.9 97 0.3 E 9 17 5 9 1017.8 1017.6 0.0
19/07:30am 12.6 10.9 12.6 100 0.0 E 13 20 7 11 1017.8 1017.6 0.0
19/07:00am 12.3 10.9 12.3 100 0.0 E 11 19 6 10 1017.7 1017.5 0.0
19/06:30am 12.1 11.0 12.1 100 0.0 E 9 15 5 8 1017.4 1017.2 0.0
19/06:00am 11.8 10.2 11.6 99 0.1 E 11 19 6 10 1017.1 1016.9 0.0
19/05:30am 12.1 9.8 11.8 98 0.2 E 15 22 8 12 1016.9 1016.7 0.0
19/05:00am 12.1 10.2 11.8 98 0.2 E 13 20 7 11 1016.9 1016.7 0.0
19/04:30am 12.1 10.5 11.6 97 0.3 E 11 17 6 9 1017.0 1016.8 0.0
19/04:00am 12.2 10.3 11.7 97 0.3 E 13 22 7 12 1016.9 1016.7 0.0
19/03:30am 12.4 10.4 11.6 95 0.4 E 13 20 7 11 1017.1 1016.9 0.0
19/03:00am 12.7 10.0 11.8 94 0.5 E 17 24 9 13 1017.4 1017.2 0.0
19/02:30am 12.8 9.7 11.7 93 0.6 E 19 24 10 13 1017.5 1017.3 0.0
19/02:00am 12.9 9.8 11.6 92 0.7 E 19 28 10 15 1017.8 1017.6 0.0
19/01:30am 12.9 10.1 11.5 91 0.7 E 17 30 9 16 1018.1 1017.9 0.0
19/01:00am 13.0 9.6 11.2 89 1.0 E 20 30 11 16 1018.4 1018.2 0.0
19/12:30am 13.2 10.0 11.3 88 1.0 E 19 28 10 15 1018.8 1018.6 0.0
19/12:00am 13.4 10.6 11.3 87 1.1 E 17 26 9 14 1019.0 1018.8 0.0
 
Date/Time
EDT
Temp
°C
App
Temp
°C
Dew
Point
°C
Rel
Hum
%
Delta-T
°C
Wind Press
QNH
hPa
Press
MSL
hPa
Rain since
9am
mm
Dir  Spd
km/h
Gust
km/h
Spd
kts
Gust
kts
18/11:30pm 13.9 11.1 11.4 85 1.3 E 17 28 9 15 1019.3 1019.2 0.0
18/11:00pm 14.2 11.0 11.4 83 1.5 E 19 28 10 15 1019.4 1019.3 0.0
18/10:30pm 14.5 11.2 11.5 82 1.6 E 20 30 11 16 1019.4 1019.3 0.0
18/10:00pm 14.8 11.4 11.4 80 1.8 E 20 33 11 18 1019.5 1019.4 0.0
18/09:30pm 15.2 11.8 11.4 78 2.1 E 20 30 11 16 1019.5 1019.4 0.0
18/09:00pm 15.9 12.6 10.9 72 2.7 E 19 28 10 15 1019.3 1019.2 0.0
18/08:30pm 16.6 13.1 10.2 66 3.4 E 19 26 10 14 1019.3 1019.2 0.0
18/08:00pm 17.6 13.4 9.8 60 4.1 E 22 35 12 19 1019.3 1019.2 0.0
18/07:30pm 18.7 14.0 9.2 54 5.0 E 24 37 13 20 1019.1 1018.9 0.0
18/07:00pm 19.7 15.8 9.6 52 5.4 E 20 32 11 17 1019.0 1018.8 0.0
18/06:30pm 20.7 15.4 8.4 45 6.5 ESE 26 41 14 22 1018.9 1018.7 0.0
18/06:00pm 21.6 16.7 8.5 43 6.9 ESE 24 43 13 23 1018.7 1018.5 0.0
18/05:30pm 22.5 17.3 7.1 37 8.0 E 24 37 13 20 1018.7 1018.5 0.0
18/05:00pm 23.4 18.5 6.7 34 8.6 E 22 32 12 17 1018.7 1018.5 0.0
18/04:30pm 24.1 20.3 7.7 35 8.7 E 17 28 9 15 1018.7 1018.5 0.0
18/04:00pm 24.3 21.3 6.1 31 9.4 ESE 11 19 6 10 1018.9 1018.7 0.0
18/03:30pm 24.1 20.4 6.4 32 9.2 E 15 28 8 15 1019.4 1019.3 0.0
18/03:00pm 24.4 22.8 10.3 41 7.8 S 9 13 5 7 1019.9 1019.8 0.0
18/02:30pm 24.1 22.6 10.7 43 7.5 SSE 9 17 5 9 1020.2 1020.1 0.0
18/02:00pm 23.7 21.5 9.3 40 7.8 ESE 11 19 6 10 1020.5 1020.4 0.0
18/01:30pm 23.2 21.4 9.6 42 7.4 ESE 9 17 5 9 1021.0 1020.9 0.0
18/01:00pm 22.6 19.9 9.0 42 7.3 E 13 20 7 11 1021.5 1021.3 0.0
18/12:30pm 22.1 19.7 8.6 42 7.2 ESE 11 17 6 9 1021.6 1021.4 0.0
18/12:00pm 21.8 19.4 8.7 43 7.0 ESE 11 20 6 11 1021.9 1021.7 0.0
18/11:30am 20.8 18.2 10.6 52 5.6 ESE 15 20 8 11 1022.4 1022.2 0.0
18/11:00am 19.8 16.8 10.5 55 5.0 E 17 24 9 13 1022.6 1022.4 0.0
18/10:30am 19.3 16.6 11.6 61 4.3 E 17 24 9 13 1022.8 1022.6 0.0
18/10:00am 17.8 14.9 10.9 64 3.7 E 17 28 9 15 1023.0 1022.8 0.0
18/09:30am 16.8 13.9 11.1 69 3.1 E 17 24 9 13 1023.1 1022.9 0.0
18/09:00am 15.8 12.8 10.8 72 2.7 E 17 26 9 14 1023.1 1022.9 0.0
18/08:30am 14.5 11.5 10.7 78 2.0 E 17 24 9 13 1023.1 1022.9 0.0
18/08:00am 13.3 11.5 10.7 84 1.4 E 11 19 6 10 1023.0 1022.8 0.0
18/07:30am 12.1 10.7 10.8 92 0.7 E 9 15 5 8 1022.7 1022.5 0.0
18/07:00am 11.0 9.1 10.4 96 0.3 ENE 11 15 6 8 1022.4 1022.2 0.0
18/06:30am 10.9 8.5 10.0 94 0.5 ENE 13 20 7 11 1022.0 1021.8 0.0
18/06:00am 10.6 7.6 9.4 92 0.6 ENE 15 20 8 11 1021.5 1021.3 0.0
18/05:30am 11.0 7.8 9.8 92 0.6 ESE 17 24 9 13 1021.0 1020.9 0.0
18/05:00am 11.1 8.0 10.2 94 0.5 ESE 17 28 9 15 1021.1 1021.0 0.0
18/04:30am 11.1 8.1 10.8 98 0.2 ESE 17 26 9 14 1021.1 1021.0 0.0
18/04:00am 11.3 8.8 11.1 99 0.1 ESE 15 22 8 12 1021.4 1021.2 0.0
18/03:30am 11.4 9.3 11.2 99 0.1 ESE 13 22 7 12 1021.7 1021.5 0.0
18/03:00am 11.5 9.0 11.2 98 0.2 ESE 15 24 8 13 1021.9 1021.7 0.0
18/02:30am 11.5 8.7 11.2 98 0.2 ESE 17 24 9 13 1022.1 1021.9 0.0
18/02:00am 11.4 8.9 10.9 97 0.3 ESE 15 20 8 11 1022.7 1022.5 0.0
18/01:30am 11.4 9.1 10.6 95 0.4 ESE 13 19 7 10 1023.1 1022.9 0.0
18/01:00am 11.7 9.1 10.8 94 0.5 ESE 15 24 8 13 1023.4 1023.2 0.0
18/12:30am 11.8 9.5 10.5 92 0.7 ESE 13 20 7 11 1023.8 1023.6 0.0
18/12:00am 12.1 9.4 10.5 90 0.8 ESE 15 24 8 13 1024.1 1023.9 0.0
 
Date/Time
EDT
Temp
°C
App
Temp
°C
Dew
Point
°C
Rel
Hum
%
Delta-T
°C
Wind Press
QNH
hPa
Press
MSL
hPa
Rain since
9am
mm
Dir  Spd
km/h
Gust
km/h
Spd
kts
Gust
kts
17/11:30pm 12.3 9.6 10.2 87 1.1 E 15 20 8 11 1024.1 1023.9 0.0
17/11:00pm 12.5 10.3 9.3 81 1.6 E 11 17 6 9 1024.4 1024.2 0.0
17/10:30pm 12.7 10.5 9.2 79 1.8 ESE 11 19 6 10 1024.6 1024.4 0.0
17/10:00pm 13.4 11.3 9.6 78 1.9 ESE 11 15 6 8 1024.5 1024.3 0.0
17/09:30pm 13.9 11.3 9.5 75 2.3 ESE 13 19 7 10 1024.2 1024.0 0.0
17/09:00pm 14.3 12.5 9.5 73 2.5 SE 9 15 5 8 1023.9 1023.7 0.0
17/08:30pm 14.6 13.2 9.6 72 2.6 SE 7 13 4 7 1023.6 1023.4 0.0
17/08:00pm 15.8 13.7 9.9 68 3.1 SSE 11 17 6 9 1023.4 1023.2 0.0
17/07:30pm 16.7 14.4 10.3 66 3.4 SSE 13 20 7 11 1023.1 1022.9 0.0
17/07:00pm 17.4 15.2 10.8 65 3.6 S 13 24 7 13 1022.7 1022.5 0.0
17/06:30pm 18.2 15.8 11.3 64 3.8 S 15 22 8 12 1022.5 1022.3 0.0
17/06:00pm 18.6 15.3 10.9 61 4.2 S 19 26 10 14 1022.4 1022.2 0.0
17/05:30pm 19.4 17.0 11.4 60 4.4 S 15 24 8 13 1022.2 1022.0 0.0
17/05:00pm 19.5 17.2 10.5 56 4.9 SSE 13 20 7 11 1022.3 1022.1 0.0
17/04:30pm 19.9 17.6 10.3 54 5.2 S 13 20 7 11 1022.3 1022.1 0.0
17/04:00pm 19.6 17.2 10.0 54 5.2 S 13 24 7 13 1022.4 1022.2 0.0
17/03:30pm 19.2 17.0 9.4 53 5.2 SSE 11 17 6 9 1022.6 1022.4 0.0
17/03:00pm 19.6 17.3 8.9 50 5.6 SSE 11 17 6 9 1022.8 1022.6 0.0
17/02:30pm 19.7 17.3 7.1 44 6.4 SE 9 19 5 10 1022.9 1022.7 0.0
17/02:00pm 20.1 17.4 7.5 44 6.5 ESE 11 17 6 9 1023.1 1022.9 0.0
17/01:30pm 19.4 17.4 8.7 50 5.6 SSE 9 19 5 10 1023.2 1023.0 0.0
17/01:00pm 18.3 15.8 8.0 51 5.3 ESE 11 22 6 12 1023.6 1023.4 0.0
17/12:30pm 18.3 16.1 8.0 51 5.3 ESE 9 20 5 11 1023.9 1023.7 0.0
17/12:00pm 17.4 14.5 8.0 54 4.8 ESE 13 20 7 11 1024.0 1023.8 0.0
17/11:30am 17.5 15.3 7.8 53 4.9 ENE 9 15 5 8 1024.2 1024.0 0.0
17/11:00am 16.2 14.3 7.4 56 4.4 ESE 7 13 4 7 1024.3 1024.1 0.0
17/10:30am 16.0 14.4 8.0 59 4.1 E 6 9 3 5 1024.4 1024.2 0.0
17/10:00am 14.6 13.0 7.9 64 3.3 SSW 6 11 3 6 1024.4 1024.2 0.0
17/09:30am 13.3 11.9 7.3 67 2.9 SSW 4 11 2 6 1024.6 1024.4 0.0
17/09:00am 13.1 11.3 7.3 68 2.8 ESE 6 7 3 4 1024.5 1024.3 0.0
17/08:30am 11.9 10.8 8.6 80 1.6 WNW 4 6 2 3 1024.3 1024.1 0.0
17/08:00am 10.1 8.8 7.5 84 1.2 NNE 4 6 2 3 1024.2 1024.0 0.0
17/07:30am 7.7 6.9 6.5 92 0.6 CALM 0 0 0 0 1024.1 1023.9 0.0
17/07:00am 7.4 6.7 7.1 98 0.1 CALM 0 0 0 0 1023.7 1023.5 0.0
17/06:30am 5.2 4.0 4.8 97 0.2 CALM 0 0 0 0 1023.4 1023.2 0.0
17/06:00am 3.8 2.2 2.6 92 0.5 CALM 0 0 0 0 1023.0 1022.8 0.0
17/05:30am 5.7 3.8 4.8 94 0.4 N 4 6 2 3 1022.8 1022.6 0.0
17/05:00am 6.3 4.2 5.6 95 0.3 NNW 6 7 3 4 1022.6 1022.4 0.0
17/04:30am 6.2 4.4 5.3 94 0.4 NNW 4 4 2 2 1022.5 1022.3 0.0
17/04:00am 6.5 4.3 5.5 93 0.4 NW 6 7 3 4 1022.3 1022.1 0.0
17/03:30am 6.7 4.6 5.7 93 0.4 NW 6 7 3 4 1022.4 1022.2 0.0
17/03:00am 6.9 5.2 5.7 92 0.5 NW 4 6 2 3 1022.4 1022.2 0.0
17/02:30am 7.0 5.3 6.1 94 0.4 NNW 4 6 2 3 1022.6 1022.4 0.0
17/02:00am 7.3 5.7 6.4 94 0.4 NW 4 6 2 3 1022.7 1022.5 0.0
17/01:30am 7.4 5.8 6.3 93 0.5 NW 4 6 2 3 1022.8 1022.6 0.0
17/01:00am 7.6 6.0 6.4 92 0.5 NNW 4 6 2 3 1022.9 1022.7 0.0
17/12:30am 8.0 6.5 6.6 91 0.6 NW 4 6 2 3 1023.0 1022.8 0.0
17/12:00am 8.4 7.3 6.9 90 0.7 WNW 2 4 1 2 1023.1 1022.9 0.0
 
Date/Time
EDT
Temp
°C
App
Temp
°C
Dew
Point
°C
Rel
Hum
%
Delta-T
°C
Wind Press
QNH
hPa
Press
MSL
hPa
Rain since
9am
mm
Dir  Spd
km/h
Gust
km/h
Spd
kts
Gust
kts
16/11:30pm 8.9 7.5 7.4 90 0.7 WNW 4 4 2 2 1023.0 1022.8 0.0
16/11:00pm 9.5 8.2 7.8 89 0.8 WNW 4 6 2 3 1023.0 1022.8 0.0
16/10:30pm 10.1 8.9 7.9 86 1.1 W 4 6 2 3 1023.0 1022.8 0.0

Other Formats:

Comma delimited format used in spreadsheet applications
http://www.bom.gov.au/fwo/IDV60801/IDV60801.99806.axf

JavaScript Object Notation format (JSON) in row-major order
http://www.bom.gov.au/fwo/IDV60801/IDV60801.99806.json